Terminal Aerodrome Forecast
Issued by NWS

Home | Current Version | Previous Version | Text Only | Print | Product List | Glossary On
Versions: 1 2 3 4 5 6 7 8 9 10 11 12 13 14 15
000
FTUS42 KTBW 302334
TAFRSW
TAF
KRSW 302334Z 3100/3124 17008KT P6SM VCSH SCT020 OVC080
     FM310700 16008KT P6SM VCSH SCT015 OVC100
     FM311400 20012G20KT P6SM VCSH SCT025 BKN050
     FM311800 20014G20KT 6SM -RA VCTS SCT020CB OVC050=

USA.gov is the U.S. government's official web portal to all federal, state and local government web resources and services.